sensor_id;sensor_type;location;lat;lon;timestamp;pressure;altitude;pressure_sealevel;temperature;humidity
4469;BME280;2247;42.666;23.292;2023-02-20T00:01:46;94685.59;;;14.55;45.37
4469;BME280;2247;42.666;23.292;2023-02-20T00:04:13;94690.97;;;14.69;45.41
4469;BME280;2247;42.666;23.292;2023-02-20T00:06:40;94691.38;;;14.76;45.02
4469;BME280;2247;42.666;23.292;2023-02-20T00:09:07;94693.06;;;14.72;45.41
4469;BME280;2247;42.666;23.292;2023-02-20T00:11:33;94684.06;;;14.68;45.68
4469;BME280;2247;42.666;23.292;2023-02-20T00:14:00;94690.88;;;14.92;45.23
4469;BME280;2247;42.666;23.292;2023-02-20T00:16:29;94676.31;;;14.90;45.38
4469;BME280;2247;42.666;23.292;2023-02-20T00:18:55;94687.56;;;14.82;45.08
4469;BME280;2247;42.666;23.292;2023-02-20T00:21:22;94682.00;;;14.46;46.20
4469;BME280;2247;42.666;23.292;2023-02-20T00:23:49;94680.22;;;14.41;46.52
4469;BME280;2247;42.666;23.292;2023-02-20T00:26:16;94680.44;;;14.64;46.18
4469;BME280;2247;42.666;23.292;2023-02-20T00:28:43;94684.50;;;14.75;45.71
4469;BME280;2247;42.666;23.292;2023-02-20T00:31:13;94681.44;;;14.68;46.00
4469;BME280;2247;42.666;23.292;2023-02-20T00:33:44;94681.00;;;14.79;45.97
4469;BME280;2247;42.666;23.292;2023-02-20T00:36:14;94676.53;;;14.75;46.14
4469;BME280;2247;42.666;23.292;2023-02-20T00:38:42;94676.81;;;14.73;46.59
4469;BME280;2247;42.666;23.292;2023-02-20T00:41:11;94658.69;;;14.80;45.81
4469;BME280;2247;42.666;23.292;2023-02-20T00:43:40;94667.56;;;14.89;45.81
4469;BME280;2247;42.666;23.292;2023-02-20T00:46:10;94670.75;;;14.73;46.54
4469;BME280;2247;42.666;23.292;2023-02-20T00:48:37;94683.44;;;14.38;46.97
4469;BME280;2247;42.666;23.292;2023-02-20T00:51:06;94685.59;;;14.36;47.20
4469;BME280;2247;42.666;23.292;2023-02-20T00:53:32;94693.81;;;14.16;48.01
4469;BME280;2247;42.666;23.292;2023-02-20T00:55:59;94702.94;;;14.05;47.89
4469;BME280;2247;42.666;23.292;2023-02-20T00:58:26;94697.00;;;13.94;48.56
4469;BME280;2247;42.666;23.292;2023-02-20T01:00:53;94681.22;;;13.84;48.45
4469;BME280;2247;42.666;23.292;2023-02-20T01:03:19;94700.25;;;13.86;48.41
4469;BME280;2247;42.666;23.292;2023-02-20T01:05:46;94710.34;;;13.84;48.84
4469;BME280;2247;42.666;23.292;2023-02-20T01:08:16;94715.88;;;13.88;48.44
4469;BME280;2247;42.666;23.292;2023-02-20T01:10:43;94722.13;;;13.73;49.13
4469;BME280;2247;42.666;23.292;2023-02-20T01:13:10;94727.88;;;13.56;49.54
4469;BME280;2247;42.666;23.292;2023-02-20T01:15:37;94733.13;;;13.61;49.59
4469;BME280;2247;42.666;23.292;2023-02-20T01:18:04;94721.91;;;13.69;49.39
4469;BME280;2247;42.666;23.292;2023-02-20T01:20:32;94720.34;;;13.68;49.73
4469;BME280;2247;42.666;23.292;2023-02-20T01:22:59;94700.81;;;13.83;48.41
4469;BME280;2247;42.666;23.292;2023-02-20T01:25:28;94720.44;;;14.06;48.25
4469;BME280;2247;42.666;23.292;2023-02-20T01:27:55;94725.84;;;13.96;49.10
4469;BME280;2247;42.666;23.292;2023-02-20T01:30:22;94728.16;;;13.78;49.47
4469;BME280;2247;42.666;23.292;2023-02-20T01:32:49;94734.63;;;13.91;49.40
4469;BME280;2247;42.666;23.292;2023-02-20T01:35:16;94730.13;;;13.92;48.83
4469;BME280;2247;42.666;23.292;2023-02-20T01:37:43;94741.13;;;13.80;49.63
4469;BME280;2247;42.666;23.292;2023-02-20T01:40:14;94748.09;;;13.71;50.23
4469;BME280;2247;42.666;23.292;2023-02-20T01:42:43;94751.03;;;13.69;50.41
4469;BME280;2247;42.666;23.292;2023-02-20T01:45:29;94744.66;;;13.47;50.92
4469;BME280;2247;42.666;23.292;2023-02-20T01:47:58;94759.34;;;13.34;51.62
4469;BME280;2247;42.666;23.292;2023-02-20T01:50:29;94762.47;;;13.36;51.55
4469;BME280;2247;42.666;23.292;2023-02-20T01:53:00;94747.84;;;13.44;51.35
4469;BME280;2247;42.666;23.292;2023-02-20T01:55:30;94747.03;;;13.48;51.72
4469;BME280;2247;42.666;23.292;2023-02-20T01:58:02;94755.59;;;13.35;52.04
4469;BME280;2247;42.666;23.292;2023-02-20T02:00:30;94766.34;;;13.15;52.54
4469;BME280;2247;42.666;23.292;2023-02-20T02:03:00;94771.44;;;13.06;53.07
4469;BME280;2247;42.666;23.292;2023-02-20T02:05:29;94770.41;;;13.02;53.41
4469;BME280;2247;42.666;23.292;2023-02-20T02:07:57;94764.44;;;13.25;52.61
4469;BME280;2247;42.666;23.292;2023-02-20T02:10:29;94775.09;;;13.10;52.98
4469;BME280;2247;42.666;23.292;2023-02-20T02:12:57;94773.66;;;12.89;52.78
4469;BME280;2247;42.666;23.292;2023-02-20T02:15:25;94780.22;;;12.96;52.62
4469;BME280;2247;42.666;23.292;2023-02-20T02:18:09;94770.16;;;12.98;51.99
4469;BME280;2247;42.666;23.292;2023-02-20T02:24:17;94764.22;;;13.17;51.23
4469;BME280;2247;42.666;23.292;2023-02-20T02:33:08;94770.09;;;13.14;50.78
4469;BME280;2247;42.666;23.292;2023-02-20T02:36:18;94783.09;;;13.05;51.12
4469;BME280;2247;42.666;23.292;2023-02-20T02:38:53;94803.59;;;12.84;51.66
4469;BME280;2247;42.666;23.292;2023-02-20T02:41:31;94788.81;;;12.78;51.65
4469;BME280;2247;42.666;23.292;2023-02-20T02:44:04;94798.91;;;12.71;51.93
4469;BME280;2247;42.666;23.292;2023-02-20T02:46:36;94794.38;;;12.77;51.99
4469;BME280;2247;42.666;23.292;2023-02-20T02:49:12;94789.53;;;12.89;51.61
4469;BME280;2247;42.666;23.292;2023-02-20T02:51:43;94798.53;;;12.93;51.05
4469;BME280;2247;42.666;23.292;2023-02-20T02:54:14;94787.38;;;12.96;51.12
4469;BME280;2247;42.666;23.292;2023-02-20T02:56:43;94777.75;;;13.10;50.18
4469;BME280;2247;42.666;23.292;2023-02-20T02:59:12;94798.78;;;13.30;50.06
4469;BME280;2247;42.666;23.292;2023-02-20T03:01:46;94758.41;;;13.20;49.26
4469;BME280;2247;42.666;23.292;2023-02-20T03:04:15;94780.69;;;13.43;48.81
4469;BME280;2247;42.666;23.292;2023-02-20T03:06:51;94776.34;;;13.23;49.05
4469;BME280;2247;42.666;23.292;2023-02-20T03:09:20;94782.34;;;12.99;50.29
4469;BME280;2247;42.666;23.292;2023-02-20T03:11:50;94786.75;;;13.09;49.61
4469;BME280;2247;42.666;23.292;2023-02-20T03:14:19;94778.50;;;12.77;50.90
4469;BME280;2247;42.666;23.292;2023-02-20T03:17:09;94790.50;;;13.03;49.93
4469;BME280;2247;42.666;23.292;2023-02-20T03:19:41;94801.34;;;13.01;50.22
4469;BME280;2247;42.666;23.292;2023-02-20T03:22:15;94806.72;;;12.91;50.34
4469;BME280;2247;42.666;23.292;2023-02-20T03:24:44;94818.94;;;12.82;50.27
4469;BME280;2247;42.666;23.292;2023-02-20T03:27:24;94822.22;;;12.64;51.01
4469;BME280;2247;42.666;23.292;2023-02-20T03:29:56;94821.13;;;12.70;50.53
4469;BME280;2247;42.666;23.292;2023-02-20T03:32:27;94825.06;;;12.73;50.68
4469;BME280;2247;42.666;23.292;2023-02-20T03:35:15;94832.78;;;12.59;51.18
4469;BME280;2247;42.666;23.292;2023-02-20T03:38:05;94832.88;;;12.49;50.96
4469;BME280;2247;42.666;23.292;2023-02-20T03:40:51;94845.31;;;12.38;51.66
4469;BME280;2247;42.666;23.292;2023-02-20T03:43:35;94838.75;;;12.31;51.46
4469;BME280;2247;42.666;23.292;2023-02-20T03:46:07;94833.88;;;12.53;50.72
4469;BME280;2247;42.666;23.292;2023-02-20T03:48:40;94844.41;;;12.68;50.32
4469;BME280;2247;42.666;23.292;2023-02-20T03:51:09;94844.38;;;12.73;50.23
4469;BME280;2247;42.666;23.292;2023-02-20T03:57:11;94852.44;;;12.43;50.53
4469;BME280;2247;42.666;23.292;2023-02-20T03:59:52;94845.88;;;12.30;50.57
4469;BME280;2247;42.666;23.292;2023-02-20T04:02:22;94869.25;;;12.67;50.22
4469;BME280;2247;42.666;23.292;2023-02-20T04:04:52;94872.34;;;12.84;49.32
4469;BME280;2247;42.666;23.292;2023-02-20T04:07:24;94867.13;;;12.69;49.29
4469;BME280;2247;42.666;23.292;2023-02-20T04:09:55;94862.59;;;12.75;49.19
4469;BME280;2247;42.666;23.292;2023-02-20T04:12:29;94872.09;;;12.86;48.77
4469;BME280;2247;42.666;23.292;2023-02-20T04:14:58;94860.22;;;12.73;49.21
4469;BME280;2247;42.666;23.292;2023-02-20T04:17:31;94864.81;;;12.57;49.61
4469;BME280;2247;42.666;23.292;2023-02-20T04:19:57;94857.13;;;12.61;49.34
4469;BME280;2247;42.666;23.292;2023-02-20T04:22:27;94838.47;;;12.32;49.73
4469;BME280;2247;42.666;23.292;2023-02-20T04:24:58;94853.66;;;12.71;49.10
4469;BME280;2247;42.666;23.292;2023-02-20T04:27:28;94860.63;;;12.51;49.64
4469;BME280;2247;42.666;23.292;2023-02-20T04:29:55;94868.59;;;12.36;50.58
4469;BME280;2247;42.666;23.292;2023-02-20T04:32:22;94875.81;;;12.00;51.91
4469;BME280;2247;42.666;23.292;2023-02-20T04:34:49;94871.59;;;11.94;51.68
4469;BME280;2247;42.666;23.292;2023-02-20T04:37:18;94866.34;;;11.74;52.24
4469;BME280;2247;42.666;23.292;2023-02-20T04:39:45;94867.91;;;11.85;51.92
4469;BME280;2247;42.666;23.292;2023-02-20T04:42:12;94858.94;;;11.76;51.63
4469;BME280;2247;42.666;23.292;2023-02-20T04:44:41;94870.28;;;11.66;52.10
4469;BME280;2247;42.666;23.292;2023-02-20T04:47:13;94862.59;;;11.70;51.60
4469;BME280;2247;42.666;23.292;2023-02-20T04:49:42;94873.19;;;11.60;51.63
4469;BME280;2247;42.666;23.292;2023-02-20T04:52:09;94868.16;;;11.48;51.68
4469;BME280;2247;42.666;23.292;2023-02-20T04:54:36;94868.69;;;11.50;51.12
4469;BME280;2247;42.666;23.292;2023-02-20T04:57:03;94879.00;;;11.77;50.59
4469;BME280;2247;42.666;23.292;2023-02-20T04:59:30;94874.25;;;11.89;50.02
4469;BME280;2247;42.666;23.292;2023-02-20T05:02:01;94883.75;;;11.85;49.44
4469;BME280;2247;42.666;23.292;2023-02-20T05:04:32;94890.91;;;11.74;49.69
4469;BME280;2247;42.666;23.292;2023-02-20T05:07:09;94895.38;;;11.79;49.56
4469;BME280;2247;42.666;23.292;2023-02-20T05:09:52;94900.13;;;11.92;48.12
4469;BME280;2247;42.666;23.292;2023-02-20T05:12:22;94906.72;;;12.00;47.39
4469;BME280;2247;42.666;23.292;2023-02-20T05:14:50;94872.94;;;11.87;47.40
4469;BME280;2247;42.666;23.292;2023-02-20T05:17:27;94917.03;;;12.01;47.03
4469;BME280;2247;42.666;23.292;2023-02-20T05:19:56;94891.38;;;11.56;47.91
4469;BME280;2247;42.666;23.292;2023-02-20T05:22:33;94900.09;;;11.67;47.83
4469;BME280;2247;42.666;23.292;2023-02-20T05:25:01;94913.84;;;11.94;47.48
4469;BME280;2247;42.666;23.292;2023-02-20T05:27:38;94919.94;;;11.84;47.51
4469;BME280;2247;42.666;23.292;2023-02-20T05:32:43;94931.25;;;12.05;47.26
4469;BME280;2247;42.666;23.292;2023-02-20T05:35:10;94920.72;;;12.00;47.44
4469;BME280;2247;42.666;23.292;2023-02-20T05:37:37;94931.00;;;12.12;47.72
4469;BME280;2247;42.666;23.292;2023-02-20T05:40:04;94930.22;;;11.76;48.59
4469;BME280;2247;42.666;23.292;2023-02-20T05:42:31;94950.28;;;12.07;48.34
4469;BME280;2247;42.666;23.292;2023-02-20T05:44:58;94949.50;;;12.02;48.41
4469;BME280;2247;42.666;23.292;2023-02-20T05:47:26;94949.50;;;12.02;48.88
4469;BME280;2247;42.666;23.292;2023-02-20T05:49:55;94940.25;;;12.14;48.79
4469;BME280;2247;42.666;23.292;2023-02-20T05:52:22;94939.69;;;12.28;48.44
4469;BME280;2247;42.666;23.292;2023-02-20T05:54:48;94932.00;;;12.41;47.71
4469;BME280;2247;42.666;23.292;2023-02-20T05:57:15;94928.31;;;12.42;47.93
4469;BME280;2247;42.666;23.292;2023-02-20T05:59:42;94936.75;;;12.49;47.76
4469;BME280;2247;42.666;23.292;2023-02-20T06:02:09;94930.63;;;12.54;47.38
4469;BME280;2247;42.666;23.292;2023-02-20T06:04:36;94935.28;;;12.87;46.93
4469;BME280;2247;42.666;23.292;2023-02-20T06:07:06;94952.63;;;13.19;45.33
4469;BME280;2247;42.666;23.292;2023-02-20T06:09:34;94947.88;;;13.11;44.89
4469;BME280;2247;42.666;23.292;2023-02-20T06:12:01;94946.28;;;13.20;44.59
4469;BME280;2247;42.666;23.292;2023-02-20T06:14:28;94954.53;;;13.13;43.77
4469;BME280;2247;42.666;23.292;2023-02-20T06:16:56;94969.84;;;13.11;43.89
4469;BME280;2247;42.666;23.292;2023-02-20T06:19:23;94974.31;;;13.21;44.19
4469;BME280;2247;42.666;23.292;2023-02-20T06:21:52;94961.78;;;13.36;43.37
4469;BME280;2247;42.666;23.292;2023-02-20T06:24:21;94950.75;;;13.63;43.88
4469;BME280;2247;42.666;23.292;2023-02-20T06:26:47;94946.69;;;13.81;42.76
4469;BME280;2247;42.666;23.292;2023-02-20T06:29:16;94955.41;;;13.82;43.41
4469;BME280;2247;42.666;23.292;2023-02-20T06:31:43;94961.25;;;13.78;43.40
4469;BME280;2247;42.666;23.292;2023-02-20T06:34:10;94955.81;;;13.99;43.33
4469;BME280;2247;42.666;23.292;2023-02-20T06:36:38;94955.28;;;13.97;42.95
4469;BME280;2247;42.666;23.292;2023-02-20T06:39:07;94977.59;;;13.91;42.88
4469;BME280;2247;42.666;23.292;2023-02-20T06:41:36;94968.09;;;13.90;42.34
4469;BME280;2247;42.666;23.292;2023-02-20T06:44:03;94959.03;;;13.96;41.74
4469;BME280;2247;42.666;23.292;2023-02-20T06:46:30;94978.78;;;13.69;41.23
4469;BME280;2247;42.666;23.292;2023-02-20T06:48:58;94972.19;;;13.23;42.42
4469;BME280;2247;42.666;23.292;2023-02-20T06:51:28;94960.09;;;13.01;42.95
4469;BME280;2247;42.666;23.292;2023-02-20T06:53:56;94972.91;;;12.69;43.31
4469;BME280;2247;42.666;23.292;2023-02-20T06:56:24;94985.56;;;12.77;43.73
4469;BME280;2247;42.666;23.292;2023-02-20T06:58:54;94985.53;;;12.87;44.43
4469;BME280;2247;42.666;23.292;2023-02-20T07:01:22;94969.06;;;13.06;43.97
4469;BME280;2247;42.666;23.292;2023-02-20T07:03:51;94983.38;;;13.05;43.71
4469;BME280;2247;42.666;23.292;2023-02-20T07:06:19;94984.13;;;13.10;42.80
4469;BME280;2247;42.666;23.292;2023-02-20T07:08:46;94991.19;;;13.35;43.10
4469;BME280;2247;42.666;23.292;2023-02-20T07:11:14;94982.53;;;13.68;43.24
4469;BME280;2247;42.666;23.292;2023-02-20T07:13:42;94981.13;;;13.81;43.77
4469;BME280;2247;42.666;23.292;2023-02-20T07:16:13;94995.56;;;13.99;43.04
4469;BME280;2247;42.666;23.292;2023-02-20T07:18:40;94995.47;;;14.09;41.16
4469;BME280;2247;42.666;23.292;2023-02-20T07:21:07;95008.47;;;14.10;39.79
4469;BME280;2247;42.666;23.292;2023-02-20T07:23:36;94995.38;;;14.19;40.89
4469;BME280;2247;42.666;23.292;2023-02-20T07:26:03;94999.25;;;14.32;38.44
4469;BME280;2247;42.666;23.292;2023-02-20T07:28:33;95000.00;;;14.42;37.71
4469;BME280;2247;42.666;23.292;2023-02-20T07:31:00;94990.81;;;13.96;37.43
4469;BME280;2247;42.666;23.292;2023-02-20T07:33:30;94997.34;;;13.69;38.29
4469;BME280;2247;42.666;23.292;2023-02-20T07:35:57;94998.28;;;13.45;38.54
4469;BME280;2247;42.666;23.292;2023-02-20T07:38:24;95002.47;;;13.51;38.31
4469;BME280;2247;42.666;23.292;2023-02-20T07:40:51;94974.38;;;13.06;38.30
4469;BME280;2247;42.666;23.292;2023-02-20T07:43:18;94994.22;;;13.13;38.57
4469;BME280;2247;42.666;23.292;2023-02-20T07:45:45;95014.28;;;13.19;38.95
4469;BME280;2247;42.666;23.292;2023-02-20T07:48:12;95013.25;;;13.20;38.84
4469;BME280;2247;42.666;23.292;2023-02-20T07:53:17;95026.06;;;13.52;37.39
4469;BME280;2247;42.666;23.292;2023-02-20T07:55:45;95009.84;;;13.59;37.33
4469;BME280;2247;42.666;23.292;2023-02-20T07:58:12;95005.69;;;13.48;37.34
4469;BME280;2247;42.666;23.292;2023-02-20T08:00:39;95029.19;;;13.59;37.42
4469;BME280;2247;42.666;23.292;2023-02-20T08:03:06;95033.25;;;13.86;37.11
4469;BME280;2247;42.666;23.292;2023-02-20T08:05:32;95042.97;;;14.00;36.48
4469;BME280;2247;42.666;23.292;2023-02-20T08:08:00;95024.84;;;13.78;36.67
4469;BME280;2247;42.666;23.292;2023-02-20T08:10:30;95030.84;;;13.94;36.11
4469;BME280;2247;42.666;23.292;2023-02-20T08:12:57;95034.28;;;13.95;36.27
4469;BME280;2247;42.666;23.292;2023-02-20T08:15:24;95025.69;;;14.08;36.25
4469;BME280;2247;42.666;23.292;2023-02-20T08:17:51;95017.47;;;14.09;36.01
4469;BME280;2247;42.666;23.292;2023-02-20T08:20:19;95021.72;;;14.10;36.20
4469;BME280;2247;42.666;23.292;2023-02-20T08:22:47;95039.66;;;14.18;35.87
4469;BME280;2247;42.666;23.292;2023-02-20T08:25:16;95042.56;;;14.22;36.16
4469;BME280;2247;42.666;23.292;2023-02-20T08:27:47;95043.09;;;14.19;36.14
4469;BME280;2247;42.666;23.292;2023-02-20T08:30:17;95043.66;;;14.16;36.42
4469;BME280;2247;42.666;23.292;2023-02-20T08:32:44;95035.25;;;14.04;36.24
4469;BME280;2247;42.666;23.292;2023-02-20T08:35:11;95039.00;;;13.98;36.26
4469;BME280;2247;42.666;23.292;2023-02-20T08:37:38;95025.75;;;14.03;36.63
4469;BME280;2247;42.666;23.292;2023-02-20T08:40:06;95030.22;;;14.07;36.32
4469;BME280;2247;42.666;23.292;2023-02-20T08:42:33;95028.88;;;14.05;36.40
4469;BME280;2247;42.666;23.292;2023-02-20T08:45:02;95031.84;;;13.98;36.83
4469;BME280;2247;42.666;23.292;2023-02-20T08:47:30;95035.03;;;14.00;36.57
4469;BME280;2247;42.666;23.292;2023-02-20T08:49:56;95025.25;;;13.96;36.20
4469;BME280;2247;42.666;23.292;2023-02-20T08:52:23;95029.50;;;13.92;36.23
4469;BME280;2247;42.666;23.292;2023-02-20T08:54:51;95049.66;;;13.93;36.18
4469;BME280;2247;42.666;23.292;2023-02-20T08:57:18;95040.56;;;14.04;36.38
4469;BME280;2247;42.666;23.292;2023-02-20T08:59:44;95034.22;;;14.00;36.29
4469;BME280;2247;42.666;23.292;2023-02-20T09:02:16;95043.91;;;14.19;36.11
4469;BME280;2247;42.666;23.292;2023-02-20T09:04:44;95037.25;;;14.22;35.90
4469;BME280;2247;42.666;23.292;2023-02-20T09:07:12;95048.81;;;14.02;35.88
4469;BME280;2247;42.666;23.292;2023-02-20T09:09:39;95035.91;;;13.86;36.04
4469;BME280;2247;42.666;23.292;2023-02-20T09:12:07;95022.84;;;13.99;35.92
4469;BME280;2247;42.666;23.292;2023-02-20T09:14:35;95019.66;;;13.97;35.88
4469;BME280;2247;42.666;23.292;2023-02-20T09:17:02;95031.13;;;13.88;36.42
4469;BME280;2247;42.666;23.292;2023-02-20T09:19:31;95037.72;;;13.90;36.53
4469;BME280;2247;42.666;23.292;2023-02-20T09:21:58;95022.31;;;13.97;36.60
4469;BME280;2247;42.666;23.292;2023-02-20T09:24:25;95028.72;;;14.25;35.98
4469;BME280;2247;42.666;23.292;2023-02-20T09:26:56;95033.59;;;14.13;36.15
4469;BME280;2247;42.666;23.292;2023-02-20T09:29:23;95030.13;;;14.17;36.30
4469;BME280;2247;42.666;23.292;2023-02-20T09:31:52;95039.47;;;14.10;36.80
4469;BME280;2247;42.666;23.292;2023-02-20T09:34:20;95024.13;;;14.07;36.53
4469;BME280;2247;42.666;23.292;2023-02-20T09:36:48;95029.41;;;14.07;36.77
4469;BME280;2247;42.666;23.292;2023-02-20T09:39:15;95010.34;;;14.05;36.91
4469;BME280;2247;42.666;23.292;2023-02-20T09:41:58;95040.84;;;14.02;37.20
4469;BME280;2247;42.666;23.292;2023-02-20T09:44:37;95013.78;;;14.10;36.59
4469;BME280;2247;42.666;23.292;2023-02-20T09:47:18;95016.97;;;14.07;36.85
4469;BME280;2247;42.666;23.292;2023-02-20T09:49:49;95030.75;;;14.04;36.87
4469;BME280;2247;42.666;23.292;2023-02-20T09:52:19;95019.78;;;14.21;36.84
4469;BME280;2247;42.666;23.292;2023-02-20T09:54:50;95028.03;;;14.14;36.63
4469;BME280;2247;42.666;23.292;2023-02-20T09:57:21;95031.53;;;14.05;36.50
4469;BME280;2247;42.666;23.292;2023-02-20T09:59:53;95030.22;;;14.07;36.58
4469;BME280;2247;42.666;23.292;2023-02-20T10:02:25;95031.66;;;13.90;35.53
4469;BME280;2247;42.666;23.292;2023-02-20T10:04:55;95036.78;;;13.71;36.14
4469;BME280;2247;42.666;23.292;2023-02-20T10:07:30;95032.25;;;13.76;35.63
4469;BME280;2247;42.666;23.292;2023-02-20T10:09:58;95040.41;;;13.85;34.73
4469;BME280;2247;42.666;23.292;2023-02-20T10:12:31;95019.00;;;13.76;34.95
4469;BME280;2247;42.666;23.292;2023-02-20T10:15:09;95039.72;;;13.69;34.70
4469;BME280;2247;42.666;23.292;2023-02-20T10:17:44;95021.97;;;13.75;34.74
4469;BME280;2247;42.666;23.292;2023-02-20T10:20:19;95024.22;;;13.92;34.47
4469;BME280;2247;42.666;23.292;2023-02-20T10:22:55;95016.09;;;13.78;34.17
4469;BME280;2247;42.666;23.292;2023-02-20T10:25:27;95018.25;;;13.76;33.95
4469;BME280;2247;42.666;23.292;2023-02-20T10:28:02;95015.59;;;13.76;33.51
4469;BME280;2247;42.666;23.292;2023-02-20T10:30:34;94984.94;;;13.65;33.71
4469;BME280;2247;42.666;23.292;2023-02-20T10:33:17;94987.03;;;13.63;33.81
4469;BME280;2247;42.666;23.292;2023-02-20T10:35:50;94983.03;;;13.70;33.77
4469;BME280;2247;42.666;23.292;2023-02-20T10:38:24;94983.59;;;13.62;33.59
4469;BME280;2247;42.666;23.292;2023-02-20T10:40:58;94970.69;;;13.56;34.22
4469;BME280;2247;42.666;23.292;2023-02-20T10:43:34;94982.81;;;13.67;34.22
4469;BME280;2247;42.666;23.292;2023-02-20T10:46:09;94989.34;;;13.79;33.73
4469;BME280;2247;42.666;23.292;2023-02-20T10:48:40;94982.94;;;13.86;33.41
4469;BME280;2247;42.666;23.292;2023-02-20T10:51:11;95005.75;;;13.76;33.54
4469;BME280;2247;42.666;23.292;2023-02-20T10:53:46;94974.19;;;13.85;33.31
4469;BME280;2247;42.666;23.292;2023-02-20T10:56:19;94998.91;;;13.75;34.26
4469;BME280;2247;42.666;23.292;2023-02-20T10:58:53;94983.25;;;13.79;34.06
4469;BME280;2247;42.666;23.292;2023-02-20T11:01:23;94970.53;;;14.15;34.35
4469;BME280;2247;42.666;23.292;2023-02-20T11:03:56;94986.16;;;14.11;34.39
4469;BME280;2247;42.666;23.292;2023-02-20T11:06:28;94991.94;;;14.18;34.22
4469;BME280;2247;42.666;23.292;2023-02-20T11:08:57;94981.28;;;14.29;34.10
4469;BME280;2247;42.666;23.292;2023-02-20T11:11:28;94980.47;;;14.28;34.20
4469;BME280;2247;42.666;23.292;2023-02-20T11:13:58;94961.41;;;14.26;34.67
4469;BME280;2247;42.666;23.292;2023-02-20T11:16:29;94968.84;;;14.24;34.29
4469;BME280;2247;42.666;23.292;2023-02-20T11:19:04;94944.38;;;14.32;34.75
4469;BME280;2247;42.666;23.292;2023-02-20T11:21:36;94959.31;;;14.23;34.64
4469;BME280;2247;42.666;23.292;2023-02-20T11:24:30;94934.94;;;14.21;34.48
4469;BME280;2247;42.666;23.292;2023-02-20T11:27:03;94940.97;;;13.98;34.98
4469;BME280;2247;42.666;23.292;2023-02-20T11:29:38;94950.59;;;13.89;34.98
4469;BME280;2247;42.666;23.292;2023-02-20T11:32:29;94934.59;;;13.99;35.26
4469;BME280;2247;42.666;23.292;2023-02-20T11:35:14;94958.72;;;13.97;35.45
4469;BME280;2247;42.666;23.292;2023-02-20T11:37:47;94944.59;;;14.07;35.37
4469;BME280;2247;42.666;23.292;2023-02-20T11:40:21;94907.84;;;14.00;35.50
4469;BME280;2247;42.666;23.292;2023-02-20T11:42:49;94941.06;;;13.88;35.53
4469;BME280;2247;42.666;23.292;2023-02-20T11:45:22;94930.28;;;14.08;34.91
4469;BME280;2247;42.666;23.292;2023-02-20T11:48:06;94935.06;;;14.06;34.84
4469;BME280;2247;42.666;23.292;2023-02-20T11:50:38;94944.53;;;14.17;34.95
4469;BME280;2247;42.666;23.292;2023-02-20T11:53:05;94948.47;;;14.19;34.92
4469;BME280;2247;42.666;23.292;2023-02-20T11:55:35;94946.84;;;13.95;34.95
4469;BME280;2247;42.666;23.292;2023-02-20T11:58:02;94928.03;;;13.96;34.77
4469;BME280;2247;42.666;23.292;2023-02-20T12:00:43;94937.13;;;14.14;34.83
4469;BME280;2247;42.666;23.292;2023-02-20T12:03:12;94939.56;;;14.10;34.54
4469;BME280;2247;42.666;23.292;2023-02-20T12:05:41;94951.22;;;14.09;34.38
4469;BME280;2247;42.666;23.292;2023-02-20T12:11:17;94918.91;;;14.07;34.00
4469;BME280;2247;42.666;23.292;2023-02-20T12:13:46;94926.72;;;14.23;33.79
4469;BME280;2247;42.666;23.292;2023-02-20T12:16:33;94933.88;;;14.22;33.52
4469;BME280;2247;42.666;23.292;2023-02-20T12:19:08;94921.31;;;14.33;33.70
4469;BME280;2247;42.666;23.292;2023-02-20T12:21:54;94930.09;;;14.28;33.86
4469;BME280;2247;42.666;23.292;2023-02-20T12:27:34;94925.50;;;14.10;34.56
4469;BME280;2247;42.666;23.292;2023-02-20T12:30:14;94934.00;;;14.07;34.50
4469;BME280;2247;42.666;23.292;2023-02-20T12:32:53;94930.66;;;14.25;34.35
4469;BME280;2247;42.666;23.292;2023-02-20T12:35:28;94952.28;;;14.37;34.47
4469;BME280;2247;42.666;23.292;2023-02-20T12:38:12;94919.09;;;14.45;34.26
4469;BME280;2247;42.666;23.292;2023-02-20T12:41:04;94938.88;;;14.52;34.27
4469;BME280;2247;42.666;23.292;2023-02-20T12:43:41;94939.59;;;14.34;34.61
4469;BME280;2247;42.666;23.292;2023-02-20T12:46:16;94941.59;;;14.18;34.47
4469;BME280;2247;42.666;23.292;2023-02-20T12:48:56;94926.78;;;14.12;34.59
4469;BME280;2247;42.666;23.292;2023-02-20T12:51:32;94948.59;;;14.33;34.39
4469;BME280;2247;42.666;23.292;2023-02-20T12:54:18;94942.22;;;14.39;34.20
4469;BME280;2247;42.666;23.292;2023-02-20T12:56:55;94933.38;;;14.49;33.86
4469;BME280;2247;42.666;23.292;2023-02-20T12:59:29;94912.50;;;14.42;34.27
4469;BME280;2247;42.666;23.292;2023-02-20T13:02:05;94924.25;;;14.31;34.49
4469;BME280;2247;42.666;23.292;2023-02-20T13:04:41;94895.56;;;14.38;34.65
4469;BME280;2247;42.666;23.292;2023-02-20T13:07:16;94914.38;;;14.37;34.21
4469;BME280;2247;42.666;23.292;2023-02-20T13:09:53;94925.81;;;14.32;34.79
4469;BME280;2247;42.666;23.292;2023-02-20T13:12:23;94935.47;;;14.52;34.52
4469;BME280;2247;42.666;23.292;2023-02-20T13:15:06;94942.00;;;14.59;34.43
4469;BME280;2247;42.666;23.292;2023-02-20T13:17:41;94939.53;;;14.68;33.57
4469;BME280;2247;42.666;23.292;2023-02-20T13:20:17;94932.97;;;14.61;33.82
4469;BME280;2247;42.666;23.292;2023-02-20T13:22:58;94947.28;;;14.65;33.92
4469;BME280;2247;42.666;23.292;2023-02-20T13:25:38;94942.69;;;14.70;33.42
4469;BME280;2247;42.666;23.292;2023-02-20T13:28:39;94948.94;;;14.55;33.28
4469;BME280;2247;42.666;23.292;2023-02-20T13:31:17;94944.09;;;14.63;33.77
4469;BME280;2247;42.666;23.292;2023-02-20T13:33:46;94951.59;;;14.55;34.63
4469;BME280;2247;42.666;23.292;2023-02-20T13:36:36;94933.09;;;14.50;34.78
4469;BME280;2247;42.666;23.292;2023-02-20T13:42:33;94935.75;;;14.50;34.87
4469;BME280;2247;42.666;23.292;2023-02-20T13:45:01;94945.84;;;14.48;35.25
4469;BME280;2247;42.666;23.292;2023-02-20T13:47:35;94953.06;;;14.43;35.12
4469;BME280;2247;42.666;23.292;2023-02-20T13:50:28;94962.91;;;14.37;34.70
4469;BME280;2247;42.666;23.292;2023-02-20T13:53:01;94954.75;;;14.29;34.80
4469;BME280;2247;42.666;23.292;2023-02-20T13:55:28;94953.91;;;14.33;35.37
4469;BME280;2247;42.666;23.292;2023-02-20T13:58:02;94952.91;;;14.29;35.54
4469;BME280;2247;42.666;23.292;2023-02-20T14:00:41;94957.16;;;14.25;36.00